Time;durP1;ratioP1;P1;durP2;ratioP2;P2;SDS_P1;SDS_P2;PMS_P1;PMS_P2;Temp;Humidity;BMP_temperature;BMP_pressure;BME280_temperature;BME280_humidity;BME280_pressure;Samples;Min_cycle;Max_cycle;Signal;HPM_P1;HPM_P2
2022/05/03 00:02:49;;;;;;;1.60;1.10;;;9.60;93.30;;;;;;4860036;29;20029;-81
2022/05/03 00:05:30;;;;;;;1.37;0.90;;;9.60;93.40;;;;;;4878482;29;20507;-82
2022/05/03 00:08:03;;;;;;;2.25;1.13;;;9.50;93.50;;;;;;4862145;29;20033;-83
2022/05/03 00:10:36;;;;;;;1.70;1.00;;;9.50;93.60;;;;;;4887088;29;20057;-82
2022/05/03 00:13:08;;;;;;;2.23;1.30;;;9.50;93.70;;;;;;4888217;29;20048;-81
2022/05/03 00:15:39;;;;;;;3.15;1.10;;;9.50;93.80;;;;;;4893047;29;20085;-83
2022/05/03 00:18:07;;;;;;;2.55;1.48;;;9.50;93.90;;;;;;4878613;29;20029;-82
2022/05/03 00:20:33;;;;;;;2.75;1.45;;;9.40;93.90;;;;;;4888103;29;20025;-82
2022/05/03 00:22:59;;;;;;;3.95;1.40;;;9.40;94.00;;;;;;4878369;29;20511;-82
2022/05/03 00:25:25;;;;;;;2.20;1.30;;;9.40;94.10;;;;;;4878114;29;20064;-82
2022/05/03 00:27:51;;;;;;;1.95;1.00;;;9.30;94.20;;;;;;4878668;29;20120;-82
2022/05/03 00:30:17;;;;;;;2.38;1.40;;;9.30;94.20;;;;;;4878078;29;20048;-81
2022/05/03 00:32:45;;;;;;;3.15;0.95;;;9.30;94.30;;;;;;4887007;29;20491;-81
2022/05/03 00:35:10;;;;;;;3.28;1.67;;;9.30;94.40;;;;;;4882773;29;20037;-81
2022/05/03 00:37:37;;;;;;;2.10;1.40;;;9.30;94.50;;;;;;4890230;29;20026;-82
2022/05/03 00:40:04;;;;;;;2.83;1.48;;;9.20;94.50;;;;;;4878602;29;20025;-82
2022/05/03 00:43:01;;;;;;;2.83;1.30;;;9.20;94.70;;;;;;4878415;29;20472;-82
2022/05/03 00:45:48;;;;;;;2.42;1.55;;;9.10;94.80;;;;;;4889063;29;20033;-81
2022/05/03 00:48:32;;;;;;;2.38;1.40;;;9.10;94.80;;;;;;4865385;29;20033;-81
2022/05/03 00:51:08;;;;;;;2.47;1.15;;;9.10;94.90;;;;;;4888450;29;20472;-81
2022/05/03 00:53:48;;;;;;;1.58;1.23;;;9.00;94.90;;;;;;4879475;29;20049;-81
2022/05/03 00:56:23;;;;;;;2.45;1.48;;;9.00;95.30;;;;;;4890096;29;20491;-82
2022/05/03 00:59:02;;;;;;;3.15;1.55;;;8.90;95.10;;;;;;4878454;29;20060;-81
2022/05/03 01:02:00;;;;;;;2.40;1.08;;;8.90;95.20;;;;;;4880528;29;20045;-81
2022/05/03 01:04:53;;;;;;;2.10;1.40;;;8.80;95.30;;;;;;4869974;29;20026;-82
2022/05/03 01:07:32;;;;;;;2.90;1.50;;;8.80;95.40;;;;;;4878650;29;20393;-82
2022/05/03 01:10:03;;;;;;;3.28;1.50;;;8.70;95.50;;;;;;4862583;29;20373;-81
2022/05/03 01:12:38;;;;;;;2.70;1.33;;;8.60;95.60;;;;;;4887660;29;20057;-82
2022/05/03 01:15:09;;;;;;;3.15;1.77;;;8.60;96.00;;;;;;4880672;29;20025;-82
2022/05/03 01:17:56;;;;;;;3.08;1.60;;;8.60;95.90;;;;;;4887543;29;20361;-82
2022/05/03 01:20:50;;;;;;;2.28;1.50;;;8.50;96.00;;;;;;4864935;29;20423;-82
2022/05/03 01:23:44;;;;;;;3.28;1.73;;;8.50;96.10;;;;;;4882183;29;20384;-82
2022/05/03 01:26:30;;;;;;;1.75;1.40;;;8.50;96.20;;;;;;4864699;29;20072;-81
2022/05/03 01:29:27;;;;;;;3.35;1.60;;;8.40;96.20;;;;;;4878403;29;20052;-82
2022/05/03 01:32:00;;;;;;;3.55;1.85;;;8.40;96.40;;;;;;4886736;29;20033;-81
2022/05/03 01:34:27;;;;;;;2.67;1.80;;;8.40;96.50;;;;;;4888638;29;20029;-81
2022/05/03 01:37:18;;;;;;;2.28;1.27;;;8.30;96.50;;;;;;4884636;29;20029;-82
2022/05/03 01:40:15;;;;;;;2.67;1.80;;;8.40;96.70;;;;;;4876842;29;20437;-82
2022/05/03 01:43:12;;;;;;;2.55;1.50;;;8.40;96.80;;;;;;4885735;29;20097;-82
2022/05/03 01:45:47;;;;;;;3.50;1.70;;;8.30;96.90;;;;;;4891369;29;20488;-82
2022/05/03 01:48:24;;;;;;;4.43;1.80;;;8.30;97.10;;;;;;4867146;29;20061;-81
2022/05/03 01:51:25;;;;;;;2.70;1.63;;;8.30;97.20;;;;;;4885613;29;20481;-82
2022/05/03 01:54:06;;;;;;;3.78;1.90;;;8.20;97.30;;;;;;4878588;29;20053;-83
2022/05/03 01:56:59;;;;;;;3.05;1.90;;;8.20;97.40;;;;;;4881289;29;20032;-81
2022/05/03 01:59:35;;;;;;;3.58;1.95;;;8.20;97.50;;;;;;4880915;29;20102;-82
2022/05/03 02:02:26;;;;;;;3.63;1.77;;;8.20;97.70;;;;;;4875410;29;20025;-82
2022/05/03 02:05:07;;;;;;;3.22;2.08;;;8.10;97.70;;;;;;4885195;29;20033;-83
2022/05/03 02:07:52;;;;;;;5.28;2.00;;;8.10;97.80;;;;;;4878003;29;20043;-81
2022/05/03 02:10:20;;;;;;;2.15;1.40;;;8.10;98.00;;;;;;4883006;29;20040;-82
2022/05/03 02:12:53;;;;;;;2.65;1.42;;;8.10;98.00;;;;;;4890421;29;20029;-82
2022/05/03 02:15:48;;;;;;;1.98;1.35;;;8.20;98.20;;;;;;4880933;29;20040;-83
2022/05/03 02:19:06;;;;;;;2.78;1.73;;;8.10;98.20;;;;;;4892486;29;20037;-82
2022/05/03 02:21:52;;;;;;;4.18;1.98;;;8.10;98.30;;;;;;4860030;29;20038;-82
2022/05/03 02:24:41;;;;;;;4.80;2.05;;;8.10;98.50;;;;;;4880472;29;20523;-82
2022/05/03 02:27:10;;;;;;;2.67;1.65;;;8.00;98.90;;;;;;4880637;29;20092;-82
2022/05/03 02:29:45;;;;;;;4.82;2.33;;;8.00;98.70;;;;;;4881785;29;20391;-83
2022/05/03 02:32:16;;;;;;;3.35;1.88;;;8.00;98.90;;;;;;4889036;29;20109;-82
2022/05/03 02:34:58;;;;;;;3.78;2.15;;;8.00;98.90;;;;;;4889019;29;20048;-82
2022/05/03 02:37:28;;;;;;;4.28;1.95;;;8.00;99.10;;;;;;4890868;29;20483;-81
2022/05/03 02:40:11;;;;;;;3.38;1.83;;;8.00;99.20;;;;;;4880512;29;20480;-82
2022/05/03 02:42:38;;;;;;;3.27;1.97;;;7.90;99.30;;;;;;4889002;29;20429;-82
2022/05/03 02:45:05;;;;;;;3.50;2.53;;;7.90;99.40;;;;;;4888198;29;20085;-82
2022/05/03 02:48:02;;;;;;;4.05;2.50;;;7.80;99.60;;;;;;4882241;29;20052;-81
2022/05/03 02:50:42;;;;;;;4.20;2.70;;;7.80;99.80;;;;;;4887523;29;20028;-82
2022/05/03 02:53:13;;;;;;;5.28;2.38;;;7.80;99.90;;;;;;4881901;29;20065;-83
2022/05/03 02:55:50;;;;;;;4.07;2.63;;;7.70;99.90;;;;;;4879970;29;20100;-83
2022/05/03 02:58:31;;;;;;;3.88;2.30;;;7.70;99.90;;;;;;4891511;29;20388;-82
2022/05/03 03:04:27;;;;;;;3.58;2.20;;;7.70;99.90;;;;;;4872316;29;20036;-83
2022/05/03 03:06:55;;;;;;;3.40;2.00;;;7.70;99.90;;;;;;4883831;29;20389;-82
2022/05/03 03:09:47;;;;;;;3.50;2.00;;;7.70;99.90;;;;;;4875492;29;20330;-82
2022/05/03 03:12:21;;;;;;;4.22;2.53;;;7.70;99.90;;;;;;4850581;29;20396;-82
2022/05/03 03:14:48;;;;;;;4.50;2.50;;;7.70;99.90;;;;;;4879962;29;20029;-83
2022/05/03 03:17:22;;;;;;;4.40;2.58;;;7.70;99.90;;;;;;4879692;29;20037;-82
2022/05/03 03:19:59;;;;;;;3.63;2.22;;;7.60;99.90;;;;;;4879619;29;20031;-82
2022/05/03 03:22:30;;;;;;;4.50;2.65;;;7.60;99.90;;;;;;4866849;29;20052;-84
2022/05/03 03:24:58;;;;;;;4.13;2.35;;;7.60;99.90;;;;;;4885882;29;20032;-82
2022/05/03 03:27:26;;;;;;;4.30;2.78;;;7.60;99.90;;;;;;4889668;29;20100;-83
2022/05/03 03:29:56;;;;;;;3.90;2.45;;;7.50;99.90;;;;;;4879454;29;20480;-83
2022/05/03 03:32:26;;;;;;;3.55;2.25;;;7.50;99.90;;;;;;4881816;29;20022;-83
2022/05/03 03:34:57;;;;;;;4.13;2.55;;;7.50;99.90;;;;;;4886363;29;20393;-84
2022/05/03 03:37:24;;;;;;;4.60;2.60;;;7.40;99.90;;;;;;4874114;29;20041;-83
2022/05/03 03:39:50;;;;;;;4.75;2.88;;;7.40;99.90;;;;;;4878941;29;20057;-82
2022/05/03 03:42:16;;;;;;;4.78;2.60;;;7.40;99.90;;;;;;4891305;29;20048;-82
2022/05/03 03:44:42;;;;;;;4.32;2.60;;;7.40;99.90;;;;;;4868885;29;20039;-82
2022/05/03 03:47:09;;;;;;;4.82;2.45;;;7.40;99.90;;;;;;4893623;29;20097;-82
2022/05/03 03:49:36;;;;;;;4.72;2.28;;;7.30;99.90;;;;;;4880848;29;20484;-82
2022/05/03 03:52:03;;;;;;;3.80;2.30;;;7.30;99.90;;;;;;4877781;29;20033;-83
2022/05/03 03:54:29;;;;;;;4.10;2.67;;;7.30;99.90;;;;;;4879412;29;20025;-83
2022/05/03 03:56:56;;;;;;;4.55;2.67;;;7.30;99.90;;;;;;4882101;29;20068;-82
2022/05/03 03:59:22;;;;;;;5.10;2.33;;;7.30;99.90;;;;;;4885189;29;20515;-83
2022/05/03 04:01:49;;;;;;;3.30;2.20;;;7.30;99.90;;;;;;4873445;29;20032;-83
2022/05/03 04:04:16;;;;;;;5.07;2.72;;;7.20;99.90;;;;;;4878426;29;20028;-83
2022/05/03 04:06:42;;;;;;;4.30;2.45;;;7.30;99.90;;;;;;4868437;29;20120;-82
2022/05/03 04:09:08;;;;;;;3.97;2.33;;;7.20;99.90;;;;;;4883706;29;20121;-82
2022/05/03 04:11:44;;;;;;;3.90;2.53;;;7.20;99.90;;;;;;4874516;29;20045;-82
2022/05/03 04:14:14;;;;;;;5.60;2.55;;;7.20;99.90;;;;;;4878712;29;20072;-83
2022/05/03 04:16:41;;;;;;;4.55;3.00;;;7.20;99.90;;;;;;4878506;29;20062;-82
2022/05/03 04:19:07;;;;;;;4.35;2.53;;;7.20;99.90;;;;;;4879618;29;20092;-82
2022/05/03 04:21:33;;;;;;;5.60;2.88;;;7.10;99.90;;;;;;4879676;29;20488;-84
2022/05/03 04:23:59;;;;;;;5.47;2.72;;;7.10;99.90;;;;;;4878162;29;20468;-82
2022/05/03 04:26:25;;;;;;;3.80;2.72;;;7.10;99.90;;;;;;4878619;29;20025;-81
2022/05/03 04:28:59;;;;;;;5.55;3.03;;;7.10;99.90;;;;;;4882474;29;20037;-80
2022/05/03 04:31:29;;;;;;;4.60;2.83;;;7.10;99.90;;;;;;4874842;29;20532;-81
2022/05/03 04:33:56;;;;;;;3.38;2.33;;;7.10;99.90;;;;;;4877754;29;20068;-84
2022/05/03 04:36:22;;;;;;;5.07;2.75;;;7.10;99.90;;;;;;4889385;29;20041;-82
2022/05/03 04:38:49;;;;;;;3.97;2.45;;;7.10;99.90;;;;;;4884127;29;20021;-82
2022/05/03 04:41:15;;;;;;;4.72;2.97;;;7.10;99.90;;;;;;4882459;29;20045;-82
2022/05/03 04:43:41;;;;;;;4.43;2.78;;;7.10;99.90;;;;;;4878611;29;20053;-83
2022/05/03 04:46:06;;;;;;;5.07;2.88;;;7.10;99.90;;;;;;4878404;29;20025;-83
2022/05/03 04:48:32;;;;;;;4.80;2.75;;;7.10;99.90;;;;;;4887748;29;20040;-84
2022/05/03 04:50:58;;;;;;;3.88;2.60;;;7.00;99.90;;;;;;4878854;29;20369;-84
2022/05/03 04:53:23;;;;;;;5.97;3.40;;;7.00;99.90;;;;;;4875618;29;20064;-81
2022/05/03 04:55:49;;;;;;;4.68;3.00;;;7.00;99.90;;;;;;4875282;29;20069;-82
2022/05/03 04:58:16;;;;;;;5.57;2.97;;;7.00;99.90;;;;;;4875104;29;20514;-81
2022/05/03 05:00:42;;;;;;;4.10;2.72;;;7.00;99.90;;;;;;4882982;29;20036;-84
2022/05/03 05:03:07;;;;;;;4.75;2.78;;;7.10;99.90;;;;;;4869736;29;20158;-81
2022/05/03 05:05:33;;;;;;;3.97;2.38;;;7.10;99.90;;;;;;4876515;29;20116;-82
2022/05/03 05:08:07;;;;;;;4.03;2.63;;;7.10;99.90;;;;;;4888506;29;20089;-82
2022/05/03 05:10:33;;;;;;;4.13;2.67;;;7.20;99.90;;;;;;4873574;29;20021;-82
2022/05/03 05:13:00;;;;;;;5.32;2.83;;;7.20;99.90;;;;;;4873975;29;20029;-83
2022/05/03 05:15:28;;;;;;;5.32;2.88;;;7.30;99.90;;;;;;4875963;29;20025;-82
2022/05/03 05:17:58;;;;;;;4.40;2.42;;;7.30;99.90;;;;;;4876015;29;20545;-81
2022/05/03 05:20:25;;;;;;;3.90;2.50;;;7.40;99.90;;;;;;4879087;29;20032;-82
2022/05/03 05:22:51;;;;;;;4.55;2.65;;;7.40;99.90;;;;;;4866842;29;20455;-82
2022/05/03 05:25:17;;;;;;;4.20;2.58;;;7.40;99.90;;;;;;4886837;29;20013;-82
2022/05/03 05:27:43;;;;;;;3.95;2.65;;;7.50;99.90;;;;;;4878907;29;20029;-82
2022/05/03 05:30:09;;;;;;;4.07;2.47;;;7.60;99.90;;;;;;4878372;29;20080;-81
2022/05/03 05:32:38;;;;;;;4.43;2.97;;;7.60;99.90;;;;;;4887074;29;20044;-83
2022/05/03 05:35:04;;;;;;;4.00;2.53;;;7.60;99.90;;;;;;4881040;29;20021;-82
2022/05/03 05:37:32;;;;;;;3.85;2.72;;;7.70;99.90;;;;;;4877950;29;20044;-82
2022/05/03 05:39:59;;;;;;;4.63;3.03;;;7.80;99.90;;;;;;4882059;29;20476;-82
2022/05/03 05:42:27;;;;;;;4.97;2.90;;;7.90;99.90;;;;;;4877824;29;20037;-82
2022/05/03 05:44:53;;;;;;;4.65;3.15;;;7.90;99.90;;;;;;4877528;29;20032;-81
2022/05/03 05:47:19;;;;;;;4.47;2.80;;;8.10;99.90;;;;;;4881964;29;20927;-81
2022/05/03 05:49:45;;;;;;;5.22;3.08;;;8.10;99.90;;;;;;4881489;29;20489;-83
2022/05/03 05:54:56;;;;;;;4.25;2.67;;;8.30;99.90;;;;;;4877419;29;20041;-83
2022/05/03 05:57:22;;;;;;;4.40;2.60;;;8.40;99.90;;;;;;4878584;29;20046;-82
2022/05/03 05:59:47;;;;;;;5.55;2.75;;;8.40;99.90;;;;;;4878465;29;20107;-83
2022/05/03 06:02:14;;;;;;;4.18;2.70;;;8.50;99.90;;;;;;4884835;29;20080;-82
2022/05/03 06:04:40;;;;;;;4.10;2.50;;;8.70;99.90;;;;;;4884908;29;20068;-83
2022/05/03 06:07:06;;;;;;;3.85;2.50;;;8.70;99.90;;;;;;4879820;29;20021;-83
2022/05/03 06:09:33;;;;;;;4.72;2.15;;;8.80;99.90;;;;;;4873733;29;20029;-82
2022/05/03 06:11:58;;;;;;;4.20;2.20;;;8.90;99.90;;;;;;4888881;29;20033;-83
2022/05/03 06:14:24;;;;;;;3.55;1.95;;;9.00;99.90;;;;;;4885064;29;20025;-83
2022/05/03 06:16:51;;;;;;;3.63;2.03;;;9.10;99.90;;;;;;4884130;29;20543;-82
2022/05/03 06:19:17;;;;;;;3.10;1.77;;;9.30;99.90;;;;;;4884350;29;20021;-82
2022/05/03 06:21:43;;;;;;;2.38;1.50;;;9.30;99.90;;;;;;4880591;29;20036;-82
2022/05/03 06:24:08;;;;;;;5.95;1.90;;;9.40;99.90;;;;;;4869622;29;20044;-82
2022/05/03 06:26:34;;;;;;;2.67;1.67;;;9.60;99.90;;;;;;4880065;29;20025;-82
2022/05/03 06:29:01;;;;;;;2.13;1.40;;;9.70;99.90;;;;;;4883609;29;20116;-83
2022/05/03 06:31:28;;;;;;;2.28;1.23;;;9.70;99.90;;;;;;4882810;29;20462;-83
2022/05/03 06:33:55;;;;;;;2.25;1.38;;;9.80;99.90;;;;;;4889543;29;20452;-83
2022/05/03 06:36:21;;;;;;;1.70;1.10;;;9.90;99.90;;;;;;4889481;29;20062;-82
2022/05/03 06:38:47;;;;;;;2.58;1.10;;;10.00;99.90;;;;;;4879857;29;20061;-83
2022/05/03 06:41:13;;;;;;;1.38;0.70;;;10.00;99.90;;;;;;4884034;29;20511;-83
2022/05/03 06:43:39;;;;;;;1.83;0.80;;;10.10;99.90;;;;;;4879769;29;20021;-83
2022/05/03 06:46:05;;;;;;;2.00;0.90;;;10.20;99.90;;;;;;4868857;29;20375;-82
2022/05/03 06:48:30;;;;;;;1.83;0.82;;;10.30;99.90;;;;;;4879405;29;20080;-83
2022/05/03 06:50:56;;;;;;;1.95;0.90;;;10.40;99.90;;;;;;4868195;29;20036;-84
2022/05/03 06:53:21;;;;;;;0.95;0.63;;;10.50;99.90;;;;;;4879555;29;20061;-82
2022/05/03 06:55:47;;;;;;;1.90;0.90;;;10.50;99.90;;;;;;4883901;29;20444;-83
2022/05/03 06:58:13;;;;;;;1.33;0.90;;;10.60;99.90;;;;;;4880133;29;20480;-82
2022/05/03 07:00:39;;;;;;;2.85;1.02;;;10.70;99.90;;;;;;4884224;29;20074;-82
2022/05/03 07:03:06;;;;;;;2.05;1.30;;;10.80;99.90;;;;;;4879381;29;20045;-82
2022/05/03 07:05:32;;;;;;;2.35;1.00;;;10.90;99.90;;;;;;4884267;29;20253;-85
2022/05/03 07:07:57;;;;;;;2.30;1.50;;;10.90;99.90;;;;;;4880245;29;20027;-84
2022/05/03 07:10:23;;;;;;;2.08;1.38;;;11.00;99.90;;;;;;4883785;29;20037;-84
2022/05/03 07:12:49;;;;;;;2.25;1.58;;;11.10;99.90;;;;;;4886140;29;20695;-83
2022/05/03 07:15:15;;;;;;;2.72;1.55;;;11.10;99.90;;;;;;4888606;29;20025;-83
2022/05/03 07:23:11;;;;;;;3.75;2.15;;;11.30;99.90;;;;;;4879503;29;20059;-82
2022/05/03 07:25:38;;;;;;;3.50;1.75;;;11.40;99.90;;;;;;4879619;29;20018;-84
2022/05/03 07:28:05;;;;;;;2.33;1.73;;;11.40;99.90;;;;;;4888374;29;20032;-81
2022/05/03 07:30:31;;;;;;;3.97;2.13;;;11.50;99.90;;;;;;4888685;29;20025;-83
2022/05/03 07:32:57;;;;;;;4.85;2.20;;;11.50;99.90;;;;;;4887646;29;20395;-82
2022/05/03 07:35:24;;;;;;;2.72;1.77;;;11.60;99.90;;;;;;4888020;29;20089;-83
2022/05/03 07:37:51;;;;;;;4.30;2.17;;;11.70;99.90;;;;;;4879441;29;20021;-83
2022/05/03 07:40:17;;;;;;;2.78;1.63;;;11.70;99.90;;;;;;4878483;29;20472;-82
2022/05/03 07:42:42;;;;;;;3.40;1.80;;;11.80;99.90;;;;;;4878588;29;20120;-83
2022/05/03 07:45:09;;;;;;;2.60;1.55;;;11.80;99.90;;;;;;4878144;29;20108;-83
2022/05/03 07:47:35;;;;;;;2.28;1.50;;;11.90;99.90;;;;;;4884409;29;20048;-82
2022/05/03 07:50:01;;;;;;;2.63;1.77;;;11.90;99.90;;;;;;4877696;29;20503;-83
2022/05/03 07:52:27;;;;;;;2.50;1.80;;;11.90;99.90;;;;;;4873457;29;20055;-83
2022/05/03 07:54:54;;;;;;;2.85;1.52;;;12.00;99.80;;;;;;4875857;29;20033;-82
2022/05/03 07:57:19;;;;;;;4.05;1.70;;;12.00;99.90;;;;;;4869966;29;20123;-83
2022/05/03 07:59:45;;;;;;;3.85;1.77;;;12.10;99.70;;;;;;4880278;29;20429;-83
2022/05/03 08:02:11;;;;;;;3.85;2.08;;;12.20;99.70;;;;;;4859409;29;20396;-82
2022/05/03 08:04:37;;;;;;;3.17;2.00;;;12.30;99.60;;;;;;4879600;29;20479;-82
2022/05/03 08:07:05;;;;;;;3.15;2.15;;;12.30;99.60;;;;;;4876175;29;20071;-83
2022/05/03 08:09:32;;;;;;;5.00;2.53;;;12.40;99.90;;;;;;4869427;29;20066;-82
2022/05/03 08:12:00;;;;;;;4.22;1.95;;;12.50;99.90;;;;;;4885031;29;20021;-84
2022/05/03 08:14:27;;;;;;;3.85;2.28;;;12.60;99.80;;;;;;4880909;29;20029;-83
2022/05/03 08:16:53;;;;;;;4.28;2.63;;;12.70;99.80;;;;;;4885407;29;20081;-84
2022/05/03 08:19:19;;;;;;;3.38;2.22;;;12.70;99.70;;;;;;4889361;29;20029;-84
2022/05/03 08:21:44;;;;;;;3.80;2.58;;;12.90;99.60;;;;;;4894534;29;20092;-85
2022/05/03 08:24:10;;;;;;;3.95;2.30;;;12.90;99.60;;;;;;4895540;29;20037;-84
2022/05/03 08:26:35;;;;;;;4.10;2.33;;;12.90;99.60;;;;;;4889311;29;20021;-84
2022/05/03 08:29:01;;;;;;;7.53;2.70;;;13.00;99.60;;;;;;4888654;29;20468;-85
2022/05/03 08:31:27;;;;;;;4.72;2.53;;;13.00;99.40;;;;;;4894462;29;20032;-85
2022/05/03 08:33:53;;;;;;;4.28;2.67;;;13.10;99.30;;;;;;4881653;29;20056;-85
2022/05/03 08:36:18;;;;;;;4.32;2.63;;;13.10;99.30;;;;;;4885058;29;20480;-85
2022/05/03 08:44:13;;;;;;;4.95;3.00;;;13.30;99.20;;;;;;4890091;29;20097;-84
2022/05/03 08:46:42;;;;;;;5.13;3.20;;;13.40;99.20;;;;;;4897098;29;20032;-85
2022/05/03 08:49:13;;;;;;;4.20;2.80;;;13.50;99.20;;;;;;4909842;29;20025;-86
2022/05/03 08:51:42;;;;;;;5.32;3.03;;;13.60;99.30;;;;;;4915842;29;20550;-85
2022/05/03 08:54:09;;;;;;;5.45;3.08;;;13.70;99.20;;;;;;4905433;29;20136;-84
2022/05/03 08:56:35;;;;;;;5.70;3.10;;;13.80;99.20;;;;;;4902558;29;20031;-85
2022/05/03 08:59:01;;;;;;;6.00;3.50;;;13.90;99.10;;;;;;4899094;29;20032;-84
2022/05/03 09:01:27;;;;;;;4.15;3.08;;;13.90;99.10;;;;;;4896508;29;20037;-84
2022/05/03 09:03:53;;;;;;;5.07;3.00;;;14.00;99.10;;;;;;4904111;29;20073;-86
2022/05/03 09:06:19;;;;;;;5.18;3.20;;;14.20;99.30;;;;;;4900792;29;20052;-83
2022/05/03 09:08:51;;;;;;;5.22;2.90;;;14.40;99.10;;;;;;4919171;29;20488;-85
2022/05/03 09:11:18;;;;;;;4.50;3.20;;;14.60;99.00;;;;;;4905893;29;20613;-84
2022/05/03 09:13:45;;;;;;;4.93;2.90;;;14.90;98.80;;;;;;4904588;29;20033;-85
2022/05/03 09:16:17;;;;;;;4.47;2.90;;;15.00;98.60;;;;;;4906467;29;20055;-84
2022/05/03 09:18:47;;;;;;;4.90;3.70;;;15.20;98.70;;;;;;4914944;29;20025;-83
2022/05/03 09:24:07;;;;;;;4.93;2.80;;;15.60;98.50;;;;;;4900946;29;20032;-84
2022/05/03 09:26:33;;;;;;;5.00;2.50;;;15.90;98.30;;;;;;4911988;29;20057;-85
2022/05/03 09:29:01;;;;;;;5.18;2.75;;;16.10;97.90;;;;;;4899097;29;20033;-84
2022/05/03 09:31:32;;;;;;;4.47;2.92;;;16.20;97.70;;;;;;4910591;29;20017;-86
2022/05/03 09:34:19;;;;;;;4.10;2.90;;;16.40;97.70;;;;;;4898319;29;20025;-84
2022/05/03 09:36:50;;;;;;;5.38;2.83;;;16.60;97.50;;;;;;4903130;29;20036;-84
2022/05/03 09:39:27;;;;;;;4.82;2.78;;;16.70;97.30;;;;;;4903694;29;20021;-82
2022/05/03 09:42:18;;;;;;;3.83;2.70;;;16.80;97.00;;;;;;4887455;29;20492;-84
2022/05/03 09:44:50;;;;;;;3.75;2.38;;;17.10;97.00;;;;;;4889679;29;20086;-84
2022/05/03 09:47:16;;;;;;;3.80;2.67;;;17.40;96.90;;;;;;4885858;29;20065;-86
2022/05/03 09:49:43;;;;;;;3.70;2.20;;;17.60;96.50;;;;;;4889374;29;20085;-85
2022/05/03 09:52:32;;;;;;;3.35;2.35;;;17.70;96.50;;;;;;4882797;29;20041;-84
2022/05/03 09:55:06;;;;;;;3.50;2.30;;;17.90;96.40;;;;;;4883449;29;20048;-85
2022/05/03 09:57:34;;;;;;;3.75;2.10;;;18.10;96.40;;;;;;4882828;29;20045;-85
2022/05/03 10:00:01;;;;;;;3.83;2.60;;;18.30;96.40;;;;;;4897798;29;20069;-86
2022/05/03 10:02:28;;;;;;;5.82;3.20;;;18.60;96.40;;;;;;4890969;29;20109;-86
2022/05/03 10:04:59;;;;;;;4.40;2.60;;;18.60;95.70;;;;;;4883387;29;20137;-84
2022/05/03 10:07:26;;;;;;;4.57;2.85;;;18.50;95.80;;;;;;4882488;29;20025;-84
2022/05/03 10:09:52;;;;;;;5.13;2.85;;;18.50;95.70;;;;;;4892230;29;20033;-87
2022/05/03 10:12:18;;;;;;;4.45;2.72;;;18.50;96.20;;;;;;4876216;29;20506;-85
2022/05/03 10:14:46;;;;;;;6.80;3.80;;;18.50;95.90;;;;;;4877988;29;20187;-83
2022/05/03 10:20:40;;;;;;;4.45;2.63;;;18.40;95.70;;;;;;4869785;29;20035;-86
2022/05/03 10:23:23;;;;;;;6.32;3.10;;;18.30;96.10;;;;;;4877612;29;20033;-84
2022/05/03 10:25:53;;;;;;;4.27;3.00;;;18.20;96.00;;;;;;4876926;29;20025;-85
2022/05/03 10:28:19;;;;;;;4.15;2.55;;;18.20;96.10;;;;;;4877830;29;20029;-83
2022/05/03 10:31:14;;;;;;;3.15;2.40;;;18.50;96.10;;;;;;4890932;29;20795;-82
2022/05/03 10:33:42;;;;;;;4.28;2.90;;;18.80;95.80;;;;;;4855679;29;20049;-83
2022/05/03 10:36:32;;;;;;;4.00;3.00;;;18.90;95.50;;;;;;4877832;29;20150;-84
2022/05/03 10:39:16;;;;;;;3.92;2.85;;;18.80;95.40;;;;;;4870072;29;20029;-83
2022/05/03 10:41:53;;;;;;;4.90;3.00;;;18.80;95.50;;;;;;4876461;29;20042;-83
2022/05/03 10:44:42;;;;;;;4.82;3.38;;;18.60;95.60;;;;;;4860767;29;20085;-82
2022/05/03 10:47:08;;;;;;;4.20;3.13;;;18.50;95.70;;;;;;4876075;29;20043;-84
2022/05/03 10:49:37;;;;;;;3.78;2.85;;;18.50;95.80;;;;;;4887672;29;20029;-84
2022/05/03 10:52:16;;;;;;;4.72;3.28;;;18.40;95.80;;;;;;4875491;29;20036;-83
2022/05/03 10:55:07;;;;;;;4.78;3.15;;;18.50;95.70;;;;;;4877657;29;20060;-83
2022/05/03 10:57:52;;;;;;;5.53;3.75;;;18.60;95.50;;;;;;4885740;29;20077;-84
2022/05/03 11:00:38;;;;;;;5.82;3.25;;;18.60;95.40;;;;;;4875664;29;20565;-82
2022/05/03 11:03:20;;;;;;;3.88;3.17;;;19.60;95.50;;;;;;4881455;29;20071;-82
2022/05/03 11:06:25;;;;;;;4.93;3.17;;;21.40;94.50;;;;;;4876965;29;20425;-82
2022/05/03 11:09:02;;;;;;;5.45;3.15;;;22.70;93.60;;;;;;4870565;29;20040;-83
2022/05/03 11:11:42;;;;;;;7.72;4.40;;;23.80;92.30;;;;;;4876175;29;20547;-82
2022/05/03 11:14:18;;;;;;;5.13;3.75;;;24.60;90.70;;;;;;4875923;29;20141;-82
2022/05/03 11:16:45;;;;;;;3.83;2.40;;;24.60;90.30;;;;;;4869487;29;20139;-82
2022/05/03 11:19:13;;;;;;;4.57;3.50;;;23.80;90.40;;;;;;4874734;29;20441;-82
2022/05/03 11:21:39;;;;;;;4.75;3.15;;;22.80;90.50;;;;;;4876617;29;20047;-82
2022/05/03 11:24:05;;;;;;;6.10;2.83;;;21.90;91.00;;;;;;4876080;29;20029;-82
2022/05/03 11:26:31;;;;;;;3.95;2.63;;;21.20;91.50;;;;;;4877160;29;20057;-82
2022/05/03 11:28:59;;;;;;;4.47;2.70;;;20.70;91.80;;;;;;4878530;29;20028;-85
2022/05/03 11:31:27;;;;;;;3.78;2.40;;;20.40;92.00;;;;;;4880318;29;20025;-85
2022/05/03 11:33:56;;;;;;;3.65;2.42;;;20.20;92.20;;;;;;4865292;29;20078;-84
2022/05/03 11:36:23;;;;;;;4.13;2.88;;;20.00;92.00;;;;;;4870332;29;20045;-84
2022/05/03 11:38:53;;;;;;;3.83;2.55;;;20.00;92.00;;;;;;4878979;29;20045;-84
2022/05/03 11:41:28;;;;;;;4.30;3.00;;;20.00;92.00;;;;;;4878580;29;20048;-84
2022/05/03 11:43:55;;;;;;;4.50;2.92;;;20.00;91.70;;;;;;4863628;29;20025;-83
2022/05/03 11:46:22;;;;;;;5.63;3.00;;;20.20;92.00;;;;;;4890896;29;20080;-82
2022/05/03 11:49:15;;;;;;;5.82;2.72;;;21.10;91.60;;;;;;4879297;29;20060;-83
2022/05/03 11:57:27;;;;;;;3.85;2.50;;;21.30;91.10;;;;;;4879279;29;20435;-83
2022/05/03 11:59:56;;;;;;;3.70;2.17;;;21.00;91.30;;;;;;4865794;29;20028;-83
2022/05/03 12:02:36;;;;;;;2.78;1.88;;;20.80;91.30;;;;;;4879921;29;20048;-83
2022/05/03 12:05:05;;;;;;;3.17;2.05;;;20.60;91.50;;;;;;4879764;29;20052;-83
2022/05/03 12:07:50;;;;;;;4.78;2.42;;;20.40;91.50;;;;;;4870454;29;20337;-84
2022/05/03 12:10:29;;;;;;;3.58;1.92;;;20.10;91.90;;;;;;4864526;29;20033;-83
2022/05/03 12:13:12;;;;;;;3.38;1.90;;;19.90;92.10;;;;;;4879051;29;20343;-84
2022/05/03 12:15:41;;;;;;;4.50;2.17;;;19.70;92.40;;;;;;4886717;29;20022;-83
2022/05/03 12:18:28;;;;;;;2.42;1.80;;;19.60;92.20;;;;;;4890713;29;20037;-84
2022/05/03 12:21:20;;;;;;;4.72;2.55;;;19.50;92.20;;;;;;4890885;29;20189;-83
2022/05/03 12:23:47;;;;;;;3.65;2.67;;;19.40;92.40;;;;;;4889665;29;20032;-83
2022/05/03 12:26:37;;;;;;;2.58;1.88;;;19.30;92.20;;;;;;4877094;29;20029;-82
2022/05/03 12:29:04;;;;;;;2.92;2.10;;;19.40;92.40;;;;;;4869552;29;20025;-82
2022/05/03 12:31:36;;;;;;;3.85;2.50;;;19.50;92.30;;;;;;4863514;29;20029;-81
2022/05/03 12:34:04;;;;;;;4.97;2.58;;;19.60;92.40;;;;;;4873771;29;20093;-81
2022/05/03 12:36:36;;;;;;;3.70;2.65;;;19.60;92.20;;;;;;4874079;29;20045;-81
2022/05/03 12:39:30;;;;;;;5.38;2.47;;;19.50;92.20;;;;;;4873917;29;20177;-82
2022/05/03 12:41:56;;;;;;;4.00;2.45;;;19.30;92.40;;;;;;4859817;29;20045;-81
2022/05/03 12:44:23;;;;;;;4.60;2.60;;;19.10;92.60;;;;;;4870567;29;20092;-81
2022/05/03 12:46:50;;;;;;;6.40;2.70;;;18.90;92.70;;;;;;4870765;29;20101;-84
2022/05/03 12:49:16;;;;;;;5.20;3.05;;;18.80;92.60;;;;;;4876881;29;20092;-81
2022/05/03 12:51:47;;;;;;;4.95;3.17;;;18.60;92.80;;;;;;4873506;29;20115;-81
2022/05/03 12:54:13;;;;;;;6.60;3.55;;;18.40;93.10;;;;;;4877536;29;20389;-81
2022/05/03 12:59:26;;;;;;;10.57;5.55;;;18.10;93.40;;;;;;4870964;29;20064;-83
2022/05/03 13:01:55;;;;;;;6.53;4.80;;;17.90;93.30;;;;;;4873673;29;20033;-84
2022/05/03 13:04:21;;;;;;;5.47;3.55;;;17.70;93.60;;;;;;4876588;29;20029;-83
2022/05/03 13:06:48;;;;;;;8.02;4.57;;;17.60;93.80;;;;;;4877887;29;20103;-84
2022/05/03 13:09:15;;;;;;;5.55;4.10;;;17.50;93.90;;;;;;4877217;29;20028;-84
2022/05/03 13:11:41;;;;;;;12.57;8.10;;;17.50;94.10;;;;;;4878748;29;20503;-85
2022/05/03 13:14:10;;;;;;;22.33;12.90;;;17.30;94.70;;;;;;4880670;29;20025;-83
2022/05/03 13:16:37;;;;;;;19.90;13.60;;;17.20;95.60;;;;;;4868134;29;20033;-83
2022/05/03 13:19:04;;;;;;;20.20;13.43;;;16.80;96.10;;;;;;4875044;29;20021;-83
2022/05/03 13:21:39;;;;;;;19.88;13.48;;;16.70;96.60;;;;;;4877474;29;20105;-83
2022/05/03 13:24:06;;;;;;;19.77;12.95;;;16.50;96.80;;;;;;4864622;29;20064;-83
2022/05/03 13:26:33;;;;;;;21.80;14.80;;;16.40;97.20;;;;;;4869108;29;20060;-84
2022/05/03 13:29:05;;;;;;;23.13;15.07;;;16.30;97.50;;;;;;4883030;29;20029;-84
2022/05/03 13:31:30;;;;;;;20.98;13.48;;;16.10;97.80;;;;;;4890062;29;20025;-82
2022/05/03 13:33:57;;;;;;;21.27;13.90;;;16.00;98.00;;;;;;4877814;29;20506;-84
2022/05/03 13:41:51;;;;;;;23.70;15.20;;;15.80;98.90;;;;;;4876339;29;20032;-82
2022/05/03 13:44:17;;;;;;;20.83;13.50;;;15.70;99.00;;;;;;4887088;29;20059;-84
2022/05/03 13:46:43;;;;;;;21.90;14.10;;;15.70;99.20;;;;;;4885502;29;20022;-83
2022/05/03 13:49:08;;;;;;;21.58;14.43;;;15.70;99.40;;;;;;4876736;29;20051;-84
2022/05/03 13:51:34;;;;;;;21.65;14.55;;;15.60;99.40;;;;;;4892841;29;20021;-83